sensor_id;sensor_type;location;lat;lon;timestamp;pressure;altitude;pressure_sealevel;temperature;humidity
43420;BME280;29017;51.514;-0.178;2023-07-08T00:01:15;100857.41;;;23.78;60.55
43420;BME280;29017;51.514;-0.178;2023-07-08T00:03:43;100859.53;;;23.76;61.29
43420;BME280;29017;51.514;-0.178;2023-07-08T00:06:17;100853.78;;;23.73;60.91
43420;BME280;29017;51.514;-0.178;2023-07-08T00:08:44;100854.06;;;23.71;60.76
43420;BME280;29017;51.514;-0.178;2023-07-08T00:11:13;100852.66;;;23.69;61.28
43420;BME280;29017;51.514;-0.178;2023-07-08T00:13:40;100859.56;;;23.65;61.06
43420;BME280;29017;51.514;-0.178;2023-07-08T00:16:12;100855.47;;;23.62;61.65
43420;BME280;29017;51.514;-0.178;2023-07-08T00:18:39;100854.09;;;23.60;61.68
43420;BME280;29017;51.514;-0.178;2023-07-08T00:21:09;100853.75;;;23.56;61.21
43420;BME280;29017;51.514;-0.178;2023-07-08T00:23:37;100856.44;;;23.56;61.36
43420;BME280;29017;51.514;-0.178;2023-07-08T00:26:10;100863.09;;;23.54;62.17
43420;BME280;29017;51.514;-0.178;2023-07-08T00:28:37;100856.34;;;23.51;62.07
43420;BME280;29017;51.514;-0.178;2023-07-08T00:31:09;100854.69;;;23.50;62.67
43420;BME280;29017;51.514;-0.178;2023-07-08T00:33:37;100844.19;;;23.49;62.27
43420;BME280;29017;51.514;-0.178;2023-07-08T00:36:10;100846.31;;;23.47;62.32
43420;BME280;29017;51.514;-0.178;2023-07-08T00:38:38;100838.47;;;23.45;62.91
43420;BME280;29017;51.514;-0.178;2023-07-08T00:43:38;100837.50;;;23.39;63.02
43420;BME280;29017;51.514;-0.178;2023-07-08T00:48:53;100831.53;;;23.37;63.30
43420;BME280;29017;51.514;-0.178;2023-07-08T00:51:22;100829.94;;;23.36;63.39
43420;BME280;29017;51.514;-0.178;2023-07-08T00:53:49;100830.63;;;23.32;63.41
43420;BME280;29017;51.514;-0.178;2023-07-08T00:56:21;100818.72;;;23.28;64.33
43420;BME280;29017;51.514;-0.178;2023-07-08T00:59:01;100823.75;;;23.24;63.91
43420;BME280;29017;51.514;-0.178;2023-07-08T01:01:31;100818.06;;;23.21;63.84
43420;BME280;29017;51.514;-0.178;2023-07-08T01:04:07;100812.91;;;23.19;64.13
43420;BME280;29017;51.514;-0.178;2023-07-08T01:06:39;100818.50;;;23.18;64.63
43420;BME280;29017;51.514;-0.178;2023-07-08T01:09:11;100821.69;;;23.15;64.71
43420;BME280;29017;51.514;-0.178;2023-07-08T01:11:40;100814.66;;;23.14;64.78
43420;BME280;29017;51.514;-0.178;2023-07-08T01:14:10;100804.16;;;23.12;65.16
43420;BME280;29017;51.514;-0.178;2023-07-08T01:16:38;100801.72;;;23.11;64.91
43420;BME280;29017;51.514;-0.178;2023-07-08T01:19:10;100800.09;;;23.10;65.38
43420;BME280;29017;51.514;-0.178;2023-07-08T01:24:20;100800.53;;;23.07;65.18
43420;BME280;29017;51.514;-0.178;2023-07-08T01:26:47;100799.72;;;23.06;65.55
43420;BME280;29017;51.514;-0.178;2023-07-08T01:29:14;100795.16;;;23.07;65.61
43420;BME280;29017;51.514;-0.178;2023-07-08T01:31:41;100793.78;;;23.04;65.11
43420;BME280;29017;51.514;-0.178;2023-07-08T01:34:16;100788.97;;;23.06;65.46
43420;BME280;29017;51.514;-0.178;2023-07-08T01:36:48;100789.47;;;23.03;65.40
43420;BME280;29017;51.514;-0.178;2023-07-08T01:39:19;100789.69;;;23.01;65.62
43420;BME280;29017;51.514;-0.178;2023-07-08T01:41:47;100791.56;;;23.01;65.90
43420;BME280;29017;51.514;-0.178;2023-07-08T01:49:40;100794.38;;;22.94;66.19
43420;BME280;29017;51.514;-0.178;2023-07-08T01:52:09;100793.78;;;22.92;66.53
43420;BME280;29017;51.514;-0.178;2023-07-08T01:54:37;100799.38;;;22.91;66.20
43420;BME280;29017;51.514;-0.178;2023-07-08T01:57:04;100785.63;;;22.87;65.83
43420;BME280;29017;51.514;-0.178;2023-07-08T01:59:32;100775.38;;;22.84;66.56
43420;BME280;29017;51.514;-0.178;2023-07-08T02:02:00;100774.56;;;22.84;66.47
43420;BME280;29017;51.514;-0.178;2023-07-08T02:04:28;100780.47;;;22.86;66.24
43420;BME280;29017;51.514;-0.178;2023-07-08T02:06:59;100774.78;;;22.82;66.28
43420;BME280;29017;51.514;-0.178;2023-07-08T02:09:27;100769.63;;;22.81;66.19
43420;BME280;29017;51.514;-0.178;2023-07-08T02:11:55;100763.69;;;22.79;66.60
43420;BME280;29017;51.514;-0.178;2023-07-08T02:14:22;100771.75;;;22.79;66.67
43420;BME280;29017;51.514;-0.178;2023-07-08T02:16:49;100763.94;;;22.77;67.20
43420;BME280;29017;51.514;-0.178;2023-07-08T02:19:17;100762.06;;;22.78;66.56
43420;BME280;29017;51.514;-0.178;2023-07-08T02:21:44;100767.44;;;22.78;66.13
43420;BME280;29017;51.514;-0.178;2023-07-08T02:24:11;100764.53;;;22.79;66.44
43420;BME280;29017;51.514;-0.178;2023-07-08T02:26:38;100765.34;;;22.80;66.80
43420;BME280;29017;51.514;-0.178;2023-07-08T02:29:05;100766.38;;;22.79;66.35
43420;BME280;29017;51.514;-0.178;2023-07-08T02:31:33;100764.53;;;22.79;66.76
43420;BME280;29017;51.514;-0.178;2023-07-08T02:34:00;100771.75;;;22.79;66.50
43420;BME280;29017;51.514;-0.178;2023-07-08T02:36:29;100771.75;;;22.79;66.31
43420;BME280;29017;51.514;-0.178;2023-07-08T02:38:56;100769.06;;;22.79;66.24
43420;BME280;29017;51.514;-0.178;2023-07-08T02:41:23;100768.03;;;22.80;65.79
43420;BME280;29017;51.514;-0.178;2023-07-08T02:43:50;100764.53;;;22.79;66.95
43420;BME280;29017;51.514;-0.178;2023-07-08T02:46:17;100771.53;;;22.80;66.59
43420;BME280;29017;51.514;-0.178;2023-07-08T02:48:45;100771.75;;;22.79;66.04
43420;BME280;29017;51.514;-0.178;2023-07-08T02:51:12;100766.59;;;22.77;66.24
43420;BME280;29017;51.514;-0.178;2023-07-08T02:53:39;100761.47;;;22.76;66.13
43420;BME280;29017;51.514;-0.178;2023-07-08T02:56:06;100765.22;;;22.75;66.23
43420;BME280;29017;51.514;-0.178;2023-07-08T02:58:34;100773.28;;;22.75;66.41
43420;BME280;29017;51.514;-0.178;2023-07-08T03:01:02;100780.50;;;22.74;65.68
43420;BME280;29017;51.514;-0.178;2023-07-08T03:03:30;100783.41;;;22.73;65.85
43420;BME280;29017;51.514;-0.178;2023-07-08T03:06:01;100778.06;;;22.73;65.92
43420;BME280;29017;51.514;-0.178;2023-07-08T03:08:29;100776.41;;;22.72;66.01
43420;BME280;29017;51.514;-0.178;2023-07-08T03:10:59;100781.78;;;22.72;65.75
43420;BME280;29017;51.514;-0.178;2023-07-08T03:13:28;100787.97;;;22.72;66.26
43420;BME280;29017;51.514;-0.178;2023-07-08T03:15:57;100788.78;;;22.73;66.15
43420;BME280;29017;51.514;-0.178;2023-07-08T03:18:26;100786.09;;;22.73;66.21
43420;BME280;29017;51.514;-0.178;2023-07-08T03:20:55;100789.81;;;22.72;66.38
43420;BME280;29017;51.514;-0.178;2023-07-08T03:23:24;100790.28;;;22.69;65.88
43420;BME280;29017;51.514;-0.178;2023-07-08T03:25:52;100791.47;;;22.73;65.62
43420;BME280;29017;51.514;-0.178;2023-07-08T03:28:19;100781.41;;;22.68;65.50
43420;BME280;29017;51.514;-0.178;2023-07-08T03:30:51;100791.09;;;22.69;65.98
43420;BME280;29017;51.514;-0.178;2023-07-08T03:33:19;100790.50;;;22.67;66.08
43420;BME280;29017;51.514;-0.178;2023-07-08T03:35:47;100784.56;;;22.65;66.09
43420;BME280;29017;51.514;-0.178;2023-07-08T03:38:15;100785.84;;;22.63;66.04
43420;BME280;29017;51.514;-0.178;2023-07-08T03:40:42;100789.34;;;22.63;66.29
43420;BME280;29017;51.514;-0.178;2023-07-08T03:43:11;100787.69;;;22.62;66.17
43420;BME280;29017;51.514;-0.178;2023-07-08T03:45:38;100790.97;;;22.64;66.01
43420;BME280;29017;51.514;-0.178;2023-07-08T03:48:05;100793.88;;;22.63;66.28
43420;BME280;29017;51.514;-0.178;2023-07-08T03:50:33;100793.28;;;22.60;66.34
43420;BME280;29017;51.514;-0.178;2023-07-08T03:53:00;100795.97;;;22.60;67.11
43420;BME280;29017;51.514;-0.178;2023-07-08T03:55:27;100786.31;;;22.59;66.35
43420;BME280;29017;51.514;-0.178;2023-07-08T03:57:57;100789.00;;;22.59;66.90
43420;BME280;29017;51.514;-0.178;2023-07-08T04:00:24;100790.84;;;22.59;66.73
43420;BME280;29017;51.514;-0.178;2023-07-08T04:02:51;100800.78;;;22.58;67.14
43420;BME280;29017;51.514;-0.178;2023-07-08T04:05:21;100797.25;;;22.58;66.85
43420;BME280;29017;51.514;-0.178;2023-07-08T04:07:48;100806.97;;;22.59;67.54
43420;BME280;29017;51.514;-0.178;2023-07-08T04:10:16;100806.13;;;22.58;67.55
43420;BME280;29017;51.514;-0.178;2023-07-08T04:12:43;100808.00;;;22.58;67.64
43420;BME280;29017;51.514;-0.178;2023-07-08T04:15:11;100822.22;;;22.58;67.18
43420;BME280;29017;51.514;-0.178;2023-07-08T04:17:43;100810.91;;;22.56;67.06
43420;BME280;29017;51.514;-0.178;2023-07-08T04:20:16;100804.72;;;22.56;67.07
43420;BME280;29017;51.514;-0.178;2023-07-08T04:22:45;100817.09;;;22.57;67.64
43420;BME280;29017;51.514;-0.178;2023-07-08T04:25:13;100811.72;;;22.57;66.88
43420;BME280;29017;51.514;-0.178;2023-07-08T04:27:41;100809.63;;;22.59;67.00
43420;BME280;29017;51.514;-0.178;2023-07-08T04:30:18;100804.28;;;22.59;67.14
43420;BME280;29017;51.514;-0.178;2023-07-08T04:32:46;100802.41;;;22.59;66.76
43420;BME280;29017;51.514;-0.178;2023-07-08T04:35:15;100809.38;;;22.60;66.03
43420;BME280;29017;51.514;-0.178;2023-07-08T04:37:42;100807.91;;;22.65;66.67
43420;BME280;29017;51.514;-0.178;2023-07-08T04:40:16;100808.94;;;22.64;65.70
43420;BME280;29017;51.514;-0.178;2023-07-08T04:42:44;100803.34;;;22.65;65.34
43420;BME280;29017;51.514;-0.178;2023-07-08T04:45:16;100802.88;;;22.68;66.26
43420;BME280;29017;51.514;-0.178;2023-07-08T04:47:44;100803.69;;;22.69;66.20
43420;BME280;29017;51.514;-0.178;2023-07-08T04:50:14;100798.69;;;22.72;65.85
43420;BME280;29017;51.514;-0.178;2023-07-08T04:52:41;100801.97;;;22.74;66.15
43420;BME280;29017;51.514;-0.178;2023-07-08T04:55:08;100801.72;;;22.76;65.94
43420;BME280;29017;51.514;-0.178;2023-07-08T04:57:36;100813.28;;;22.76;66.31
43420;BME280;29017;51.514;-0.178;2023-07-08T05:00:05;100807.91;;;22.76;66.17
43420;BME280;29017;51.514;-0.178;2023-07-08T05:02:35;100806.31;;;22.75;65.50
43420;BME280;29017;51.514;-0.178;2023-07-08T05:05:02;100813.06;;;22.78;65.61
43420;BME280;29017;51.514;-0.178;2023-07-08T05:07:29;100796.72;;;22.79;65.35
43420;BME280;29017;51.514;-0.178;2023-07-08T05:09:57;100808.03;;;22.81;65.69
43420;BME280;29017;51.514;-0.178;2023-07-08T05:12:26;100806.75;;;22.84;65.67
43420;BME280;29017;51.514;-0.178;2023-07-08T05:14:53;100819.69;;;22.87;66.06
43420;BME280;29017;51.514;-0.178;2023-07-08T05:17:21;100821.09;;;22.89;66.71
43420;BME280;29017;51.514;-0.178;2023-07-08T05:19:48;100822.50;;;22.92;67.08
43420;BME280;29017;51.514;-0.178;2023-07-08T05:22:18;100810.72;;;22.93;66.47
43420;BME280;29017;51.514;-0.178;2023-07-08T05:24:49;100822.28;;;22.93;66.83
43420;BME280;29017;51.514;-0.178;2023-07-08T05:27:19;100829.28;;;22.94;66.34
43420;BME280;29017;51.514;-0.178;2023-07-08T05:29:46;100827.41;;;22.95;66.16
43420;BME280;29017;51.514;-0.178;2023-07-08T05:32:14;100833.34;;;22.97;67.02
43420;BME280;29017;51.514;-0.178;2023-07-08T05:34:42;100829.63;;;22.98;67.19
43420;BME280;29017;51.514;-0.178;2023-07-08T05:37:10;100835.59;;;23.00;66.65
43420;BME280;29017;51.514;-0.178;2023-07-08T05:39:38;100836.97;;;23.02;66.88
43420;BME280;29017;51.514;-0.178;2023-07-08T05:42:05;100841.50;;;23.02;66.77
43420;BME280;29017;51.514;-0.178;2023-07-08T05:44:32;100848.53;;;23.03;67.68
43420;BME280;29017;51.514;-0.178;2023-07-08T05:47:00;100836.75;;;23.04;67.38
43420;BME280;29017;51.514;-0.178;2023-07-08T05:49:28;100822.28;;;23.05;67.60
43420;BME280;29017;51.514;-0.178;2023-07-08T05:51:55;100826.56;;;23.06;66.77
43420;BME280;29017;51.514;-0.178;2023-07-08T05:54:22;100837.66;;;23.10;67.27
43420;BME280;29017;51.514;-0.178;2023-07-08T05:56:51;100849.22;;;23.10;67.27
43420;BME280;29017;51.514;-0.178;2023-07-08T05:59:18;100848.16;;;23.11;67.29
43420;BME280;29017;51.514;-0.178;2023-07-08T06:01:45;100847.72;;;23.14;67.73
43420;BME280;29017;51.514;-0.178;2023-07-08T06:04:12;100855.28;;;23.17;67.55
43420;BME280;29017;51.514;-0.178;2023-07-08T06:06:40;100844.66;;;23.22;68.23
43420;BME280;29017;51.514;-0.178;2023-07-08T06:09:07;100839.16;;;23.29;67.70
43420;BME280;29017;51.514;-0.178;2023-07-08T06:11:34;100842.56;;;23.36;67.03
43420;BME280;29017;51.514;-0.178;2023-07-08T06:14:01;100851.28;;;23.43;66.37
43420;BME280;29017;51.514;-0.178;2023-07-08T06:16:28;100851.53;;;23.53;68.03
43420;BME280;29017;51.514;-0.178;2023-07-08T06:19:07;100850.09;;;23.62;66.44
43420;BME280;29017;51.514;-0.178;2023-07-08T06:21:34;100853.69;;;23.68;66.05
43420;BME280;29017;51.514;-0.178;2023-07-08T06:24:02;100850.88;;;23.74;65.69
43420;BME280;29017;51.514;-0.178;2023-07-08T06:26:29;100851.81;;;23.80;65.66
43420;BME280;29017;51.514;-0.178;2023-07-08T06:28:56;100856.22;;;23.86;66.35
43420;BME280;29017;51.514;-0.178;2023-07-08T06:31:23;100854.06;;;24.00;66.06
43420;BME280;29017;51.514;-0.178;2023-07-08T06:33:51;100866.72;;;24.16;65.33
43420;BME280;29017;51.514;-0.178;2023-07-08T06:36:18;100874.69;;;24.39;64.34
43420;BME280;29017;51.514;-0.178;2023-07-08T06:38:45;100882.88;;;24.44;63.22
43420;BME280;29017;51.514;-0.178;2023-07-08T06:41:13;100889.28;;;24.43;63.11
43420;BME280;29017;51.514;-0.178;2023-07-08T06:43:40;100892.25;;;24.42;63.56
43420;BME280;29017;51.514;-0.178;2023-07-08T06:46:07;100895.75;;;24.42;64.05
43420;BME280;29017;51.514;-0.178;2023-07-08T06:48:35;100888.25;;;24.44;64.54
43420;BME280;29017;51.514;-0.178;2023-07-08T06:51:02;100899.59;;;24.46;64.43
43420;BME280;29017;51.514;-0.178;2023-07-08T06:53:30;100897.72;;;24.47;64.11
43420;BME280;29017;51.514;-0.178;2023-07-08T06:55:57;100907.16;;;24.49;64.12
43420;BME280;29017;51.514;-0.178;2023-07-08T06:58:24;100903.44;;;24.50;64.31
43420;BME280;29017;51.514;-0.178;2023-07-08T07:00:51;100918.53;;;24.51;64.74
43420;BME280;29017;51.514;-0.178;2023-07-08T07:03:19;100909.84;;;24.49;64.97
43420;BME280;29017;51.514;-0.178;2023-07-08T07:05:46;100916.06;;;24.50;64.95
43420;BME280;29017;51.514;-0.178;2023-07-08T07:08:13;100907.16;;;24.49;64.65
43420;BME280;29017;51.514;-0.178;2023-07-08T07:10:41;100923.66;;;24.53;64.71
43420;BME280;29017;51.514;-0.178;2023-07-08T07:13:09;100923.16;;;24.56;65.09
43420;BME280;29017;51.514;-0.178;2023-07-08T07:15:36;100926.44;;;24.58;65.04
43420;BME280;29017;51.514;-0.178;2023-07-08T07:18:04;100918.38;;;24.58;64.96
43420;BME280;29017;51.514;-0.178;2023-07-08T07:20:33;100920.56;;;24.61;65.12
43420;BME280;29017;51.514;-0.178;2023-07-08T07:23:00;100916.81;;;24.62;65.10
43420;BME280;29017;51.514;-0.178;2023-07-08T07:25:27;100924.41;;;24.65;65.76
43420;BME280;29017;51.514;-0.178;2023-07-08T07:27:55;100925.00;;;24.67;65.89
43420;BME280;29017;51.514;-0.178;2023-07-08T07:30:22;100917.22;;;24.70;66.01
43420;BME280;29017;51.514;-0.178;2023-07-08T07:32:49;100907.50;;;24.69;66.01
43420;BME280;29017;51.514;-0.178;2023-07-08T07:35:16;100915.03;;;24.67;65.46
43420;BME280;29017;51.514;-0.178;2023-07-08T07:37:44;100913.63;;;24.65;65.96
43420;BME280;29017;51.514;-0.178;2023-07-08T07:40:12;100916.31;;;24.65;66.00
43420;BME280;29017;51.514;-0.178;2023-07-08T07:42:43;100921.97;;;24.63;65.86
43420;BME280;29017;51.514;-0.178;2023-07-08T07:45:12;100923.25;;;24.61;66.13
43420;BME280;29017;51.514;-0.178;2023-07-08T07:47:40;100926.78;;;24.61;66.86
43420;BME280;29017;51.514;-0.178;2023-07-08T07:50:08;100929.69;;;24.60;67.22
43420;BME280;29017;51.514;-0.178;2023-07-08T07:52:36;100918.59;;;24.56;66.72
43420;BME280;29017;51.514;-0.178;2023-07-08T07:55:04;100918.84;;;24.55;67.00
43420;BME280;29017;51.514;-0.178;2023-07-08T07:57:31;100932.78;;;24.52;67.09
43420;BME280;29017;51.514;-0.178;2023-07-08T07:59:59;100935.47;;;24.52;66.77
43420;BME280;29017;51.514;-0.178;2023-07-08T08:02:26;100937.03;;;24.48;67.19
43420;BME280;29017;51.514;-0.178;2023-07-08T08:04:53;100942.41;;;24.48;67.99
43420;BME280;29017;51.514;-0.178;2023-07-08T08:07:21;100931.88;;;24.46;68.02
43420;BME280;29017;51.514;-0.178;2023-07-08T08:09:48;100952.38;;;24.47;68.76
43420;BME280;29017;51.514;-0.178;2023-07-08T08:12:15;100959.34;;;24.48;68.05
43420;BME280;29017;51.514;-0.178;2023-07-08T08:14:43;100970.13;;;24.48;67.99
43420;BME280;29017;51.514;-0.178;2023-07-08T08:17:10;100991.41;;;24.50;68.25
43420;BME280;29017;51.514;-0.178;2023-07-08T08:19:37;100995.97;;;24.49;67.41
43420;BME280;29017;51.514;-0.178;2023-07-08T08:22:04;100994.09;;;24.50;68.41
43420;BME280;29017;51.514;-0.178;2023-07-08T08:24:32;101007.56;;;24.50;68.29
43420;BME280;29017;51.514;-0.178;2023-07-08T08:27:00;101009.09;;;24.46;67.78
43420;BME280;29017;51.514;-0.178;2023-07-08T08:29:27;101015.75;;;24.43;68.32
43420;BME280;29017;51.514;-0.178;2023-07-08T08:31:55;101014.16;;;24.42;70.00
43420;BME280;29017;51.514;-0.178;2023-07-08T08:34:22;101017.06;;;24.41;71.12
43420;BME280;29017;51.514;-0.178;2023-07-08T08:36:49;101024.81;;;24.37;72.78
43420;BME280;29017;51.514;-0.178;2023-07-08T08:39:16;101020.16;;;24.33;72.54
43420;BME280;29017;51.514;-0.178;2023-07-08T08:41:43;101025.19;;;24.29;73.51
43420;BME280;29017;51.514;-0.178;2023-07-08T08:44:16;101030.44;;;24.24;74.09
43420;BME280;29017;51.514;-0.178;2023-07-08T08:47:01;101027.19;;;24.22;75.06
43420;BME280;29017;51.514;-0.178;2023-07-08T08:49:44;101030.13;;;24.20;76.58
43420;BME280;29017;51.514;-0.178;2023-07-08T08:52:15;101040.06;;;24.20;78.01
43420;BME280;29017;51.514;-0.178;2023-07-08T08:54:42;101034.69;;;24.20;77.64
43420;BME280;29017;51.514;-0.178;2023-07-08T08:57:24;101035.00;;;24.23;78.25
43420;BME280;29017;51.514;-0.178;2023-07-08T08:59:57;101038.06;;;24.27;78.12
43420;BME280;29017;51.514;-0.178;2023-07-08T09:05:07;101043.28;;;24.34;78.29
43420;BME280;29017;51.514;-0.178;2023-07-08T09:07:55;101039.78;;;24.33;78.43
43420;BME280;29017;51.514;-0.178;2023-07-08T09:13:02;101047.72;;;24.40;77.95
43420;BME280;29017;51.514;-0.178;2023-07-08T09:15:30;101035.41;;;24.44;77.97
43420;BME280;29017;51.514;-0.178;2023-07-08T09:18:03;101033.41;;;24.51;77.19
43420;BME280;29017;51.514;-0.178;2023-07-08T09:20:37;101030.94;;;24.61;77.36
43420;BME280;29017;51.514;-0.178;2023-07-08T09:25:43;101034.03;;;24.69;74.98
43420;BME280;29017;51.514;-0.178;2023-07-08T09:28:14;101030.38;;;24.76;74.35
43420;BME280;29017;51.514;-0.178;2023-07-08T09:30:47;101039.38;;;24.81;74.16
43420;BME280;29017;51.514;-0.178;2023-07-08T09:33:14;101038.09;;;24.84;73.46
43420;BME280;29017;51.514;-0.178;2023-07-08T09:35:45;101041.03;;;24.82;72.63
43420;BME280;29017;51.514;-0.178;2023-07-08T09:38:17;101050.47;;;24.85;70.75
43420;BME280;29017;51.514;-0.178;2023-07-08T09:40:49;101051.69;;;24.89;70.07
43420;BME280;29017;51.514;-0.178;2023-07-08T09:43:28;101061.97;;;24.92;69.72
43420;BME280;29017;51.514;-0.178;2023-07-08T09:46:03;101059.28;;;24.92;69.39
43420;BME280;29017;51.514;-0.178;2023-07-08T09:48:36;101058.22;;;24.93;68.49
43420;BME280;29017;51.514;-0.178;2023-07-08T09:51:04;101063.09;;;24.96;67.93
43420;BME280;29017;51.514;-0.178;2023-07-08T09:53:33;101069.91;;;24.98;67.71
43420;BME280;29017;51.514;-0.178;2023-07-08T09:56:03;101074.78;;;25.01;67.69
43420;BME280;29017;51.514;-0.178;2023-07-08T09:58:34;101076.19;;;25.04;68.99
43420;BME280;29017;51.514;-0.178;2023-07-08T10:01:18;101080.28;;;25.06;68.41
43420;BME280;29017;51.514;-0.178;2023-07-08T10:03:48;101081.41;;;25.10;68.74
43420;BME280;29017;51.514;-0.178;2023-07-08T10:06:20;101078.25;;;25.13;67.81
43420;BME280;29017;51.514;-0.178;2023-07-08T10:08:48;101083.72;;;25.19;68.30
43420;BME280;29017;51.514;-0.178;2023-07-08T10:13:48;101083.56;;;25.25;64.39
43420;BME280;29017;51.514;-0.178;2023-07-08T10:16:36;101088.47;;;25.28;63.41
43420;BME280;29017;51.514;-0.178;2023-07-08T10:19:16;101094.78;;;25.34;61.74
43420;BME280;29017;51.514;-0.178;2023-07-08T10:35:28;101128.03;;;25.39;58.64
43420;BME280;29017;51.514;-0.178;2023-07-08T10:40:53;101153.47;;;25.32;58.32
43420;BME280;29017;51.514;-0.178;2023-07-08T10:46:11;101168.72;;;25.26;58.91
43420;BME280;29017;51.514;-0.178;2023-07-08T10:51:30;101188.00;;;25.18;58.42
43420;BME280;29017;51.514;-0.178;2023-07-08T10:56:55;101188.34;;;25.10;59.86
43420;BME280;29017;51.514;-0.178;2023-07-08T11:07:59;101208.31;;;24.86;67.71
43420;BME280;29017;51.514;-0.178;2023-07-08T11:10:34;101205.63;;;24.74;69.21
43420;BME280;29017;51.514;-0.178;2023-07-08T11:13:16;101190.91;;;24.65;70.56
43420;BME280;29017;51.514;-0.178;2023-07-08T11:15:50;101174.06;;;24.58;71.43
43420;BME280;29017;51.514;-0.178;2023-07-08T11:20:54;101156.41;;;24.50;73.21
43420;BME280;29017;51.514;-0.178;2023-07-08T11:26:11;101137.44;;;24.45;71.95
43420;BME280;29017;51.514;-0.178;2023-07-08T11:28:41;101127.50;;;24.46;71.56
43420;BME280;29017;51.514;-0.178;2023-07-08T11:31:08;101130.78;;;24.48;71.42
43420;BME280;29017;51.514;-0.178;2023-07-08T11:33:37;101135.91;;;24.49;67.90
43420;BME280;29017;51.514;-0.178;2023-07-08T11:36:06;101142.72;;;24.52;67.01
43420;BME280;29017;51.514;-0.178;2023-07-08T11:38:35;101143.75;;;24.51;67.85
43420;BME280;29017;51.514;-0.178;2023-07-08T11:41:11;101148.56;;;24.49;67.39
43420;BME280;29017;51.514;-0.178;2023-07-08T11:46:21;101157.94;;;24.46;67.40
43420;BME280;29017;51.514;-0.178;2023-07-08T11:48:53;101155.00;;;24.48;67.61
43420;BME280;29017;51.514;-0.178;2023-07-08T11:51:30;101138.88;;;24.48;68.46
43420;BME280;29017;51.514;-0.178;2023-07-08T11:56:27;101124.22;;;24.44;70.17
43420;BME280;29017;51.514;-0.178;2023-07-08T11:58:59;101127.16;;;24.42;70.54
43420;BME280;29017;51.514;-0.178;2023-07-08T12:01:40;101126.34;;;24.42;69.33
43420;BME280;29017;51.514;-0.178;2023-07-08T12:09:20;101105.75;;;24.36;76.35
43420;BME280;29017;51.514;-0.178;2023-07-08T12:11:57;101090.09;;;24.33;79.91
43420;BME280;29017;51.514;-0.178;2023-07-08T12:14:28;101100.66;;;24.22;80.61
43420;BME280;29017;51.514;-0.178;2023-07-08T12:16:56;101114.53;;;24.08;82.01
43420;BME280;29017;51.514;-0.178;2023-07-08T12:19:28;101130.09;;;23.94;83.05
43420;BME280;29017;51.514;-0.178;2023-07-08T12:22:01;101143.06;;;23.85;83.67
43420;BME280;29017;51.514;-0.178;2023-07-08T12:24:28;101150.66;;;23.77;84.63
43420;BME280;29017;51.514;-0.178;2023-07-08T12:26:56;101153.66;;;23.69;85.35
43420;BME280;29017;51.514;-0.178;2023-07-08T12:29:23;101165.81;;;23.60;84.95
43420;BME280;29017;51.514;-0.178;2023-07-08T12:31:52;101162.50;;;23.58;86.43
43420;BME280;29017;51.514;-0.178;2023-07-08T12:34:20;101188.81;;;23.56;86.69
43420;BME280;29017;51.514;-0.178;2023-07-08T12:36:50;101187.16;;;23.55;87.13
43420;BME280;29017;51.514;-0.178;2023-07-08T12:39:18;101200.00;;;23.53;87.42
43420;BME280;29017;51.514;-0.178;2023-07-08T12:41:48;101205.38;;;23.53;88.31
43420;BME280;29017;51.514;-0.178;2023-07-08T12:44:19;101204.81;;;23.51;88.58
43420;BME280;29017;51.514;-0.178;2023-07-08T12:46:48;101194.50;;;23.48;89.33
43420;BME280;29017;51.514;-0.178;2023-07-08T12:49:19;101188.97;;;23.42;88.32
43420;BME280;29017;51.514;-0.178;2023-07-08T12:51:49;101178.06;;;23.37;88.80
43420;BME280;29017;51.514;-0.178;2023-07-08T12:54:17;101182.75;;;23.30;87.74
43420;BME280;29017;51.514;-0.178;2023-07-08T12:56:46;101199.75;;;23.24;88.11
43420;BME280;29017;51.514;-0.178;2023-07-08T12:59:19;101203.03;;;23.26;88.91
43420;BME280;29017;51.514;-0.178;2023-07-08T13:01:48;101199.53;;;23.26;89.50
43420;BME280;29017;51.514;-0.178;2023-07-08T13:04:17;101202.44;;;23.24;90.93
43420;BME280;29017;51.514;-0.178;2023-07-08T13:06:45;101202.88;;;23.21;91.29
43420;BME280;29017;51.514;-0.178;2023-07-08T13:11:47;101193.06;;;23.15;93.04
43420;BME280;29017;51.514;-0.178;2023-07-08T13:14:15;101179.03;;;23.13;93.20
43420;BME280;29017;51.514;-0.178;2023-07-08T13:16:44;101183.59;;;23.13;94.29
43420;BME280;29017;51.514;-0.178;2023-07-08T13:19:12;101193.06;;;23.15;95.34
43420;BME280;29017;51.514;-0.178;2023-07-08T13:21:40;101198.88;;;23.12;93.92
43420;BME280;29017;51.514;-0.178;2023-07-08T13:24:10;101203.53;;;23.05;92.87
43420;BME280;29017;51.514;-0.178;2023-07-08T13:26:40;101201.28;;;23.02;92.84
43420;BME280;29017;51.514;-0.178;2023-07-08T13:29:14;101195.34;;;23.00;93.44
43420;BME280;29017;51.514;-0.178;2023-07-08T13:31:48;101197.19;;;22.99;94.21
43420;BME280;29017;51.514;-0.178;2023-07-08T13:34:18;101184.72;;;23.05;96.06
43420;BME280;29017;51.514;-0.178;2023-07-08T13:36:50;101182.63;;;23.07;95.51
43420;BME280;29017;51.514;-0.178;2023-07-08T13:39:26;101168.28;;;23.13;96.12
43420;BME280;29017;51.514;-0.178;2023-07-08T13:41:55;101179.78;;;23.20;96.79
43420;BME280;29017;51.514;-0.178;2023-07-08T13:44:23;101175.94;;;23.28;96.20
43420;BME280;29017;51.514;-0.178;2023-07-08T13:49:31;101175.94;;;23.46;94.76
43420;BME280;29017;51.514;-0.178;2023-07-08T13:54:43;101167.53;;;23.54;93.35
43420;BME280;29017;51.514;-0.178;2023-07-08T13:57:15;101166.63;;;23.60;92.34
43420;BME280;29017;51.514;-0.178;2023-07-08T13:59:43;101168.03;;;23.63;90.53
43420;BME280;29017;51.514;-0.178;2023-07-08T14:02:18;101166.28;;;23.68;90.53
43420;BME280;29017;51.514;-0.178;2023-07-08T14:04:49;101172.03;;;23.72;90.20
43420;BME280;29017;51.514;-0.178;2023-07-08T14:07:20;101160.22;;;23.73;91.11
43420;BME280;29017;51.514;-0.178;2023-07-08T14:09:48;101152.97;;;23.73;92.00
43420;BME280;29017;51.514;-0.178;2023-07-08T14:12:15;101150.53;;;23.72;90.22